Time;durP1;ratioP1;P1;durP2;ratioP2;P2;SDS_P1;SDS_P2;PMS_P1;PMS_P2;Temp;Humidity;BMP_temperature;BMP_pressure;BME280_temperature;BME280_humidity;BME280_pressure;Samples;Min_cycle;Max_cycle;Signal;HPM_P1;HPM_P2
2022/11/22 00:00:40;;;;;;;0.30;0.30;;;;;;;5.09;83.70;93578.06;4348803;32;20292;-61
2022/11/22 00:03:07;;;;;;;0.33;0.33;;;;;;;5.31;82.64;93579.88;4361824;32;20352;-61
2022/11/22 00:05:34;;;;;;;0.83;0.83;;;;;;;5.33;82.50;93575.84;4372528;32;20330;-61
2022/11/22 00:08:00;;;;;;;0.57;0.57;;;;;;;5.41;82.00;93577.72;4378601;32;20291;-62
2022/11/22 00:10:26;;;;;;;0.83;0.47;;;;;;;5.28;82.65;93578.59;4340712;32;20285;-61
2022/11/22 00:12:53;;;;;;;0.40;0.40;;;;;;;5.52;81.91;93575.63;4370852;32;20329;-61
2022/11/22 00:15:19;;;;;;;0.77;0.77;;;;;;;5.01;83.64;93574.28;4364865;32;20276;-61
2022/11/22 00:17:45;;;;;;;0.43;0.43;;;;;;;5.32;82.99;93584.03;4394079;32;20280;-61
2022/11/22 00:20:12;;;;;;;0.60;0.60;;;;;;;5.26;82.59;93567.63;4367482;32;20256;-61
2022/11/22 00:22:38;;;;;;;0.43;0.43;;;;;;;5.14;83.39;93577.94;4374447;32;20334;-61
2022/11/22 00:25:07;;;;;;;1.07;0.67;;;;;;;5.02;83.91;93575.84;4384334;32;20308;-61
2022/11/22 00:27:34;;;;;;;0.47;0.47;;;;;;;4.95;84.20;93580.00;4380086;32;20215;-61
2022/11/22 00:29:59;;;;;;;0.53;0.53;;;;;;;4.97;84.58;93575.22;4375413;32;20309;-65
2022/11/22 00:32:27;;;;;;;0.60;0.50;;;;;;;5.07;84.27;93582.84;4374561;32;20296;-61
2022/11/22 00:34:55;;;;;;;0.80;0.80;;;;;;;4.92;85.20;93585.84;4376594;32;20184;-60
2022/11/22 00:37:22;;;;;;;0.30;0.30;;;;;;;4.91;85.39;93571.16;4343208;32;20412;-60
2022/11/22 00:39:48;;;;;;;0.60;0.60;;;;;;;5.13;84.68;93577.16;4353823;32;20392;-60
2022/11/22 00:42:15;;;;;;;0.27;0.27;;;;;;;5.30;83.97;93565.94;4370477;32;20276;-60
2022/11/22 00:44:42;;;;;;;1.40;1.20;;;;;;;5.11;84.09;93583.78;4366436;32;20325;-61
2022/11/22 00:47:07;;;;;;;0.03;0.03;;;;;;;5.42;83.43;93581.13;4373899;32;20399;-61
2022/11/22 00:49:32;;;;;;;2.00;0.97;;;;;;;5.50;83.16;93583.03;4361339;32;20281;-61
2022/11/22 00:51:57;;;;;;;0.80;0.80;;;;;;;5.53;82.55;93591.09;4377173;32;20189;-60
2022/11/22 00:54:23;;;;;;;0.70;0.70;;;;;;;5.49;82.89;93594.62;4364690;32;20189;-60
2022/11/22 00:56:49;;;;;;;0.27;0.27;;;;;;;5.52;82.99;93602.69;4377106;32;20203;-60
2022/11/22 00:59:15;;;;;;;2.20;1.57;;;;;;;5.57;82.31;93599.16;4360493;32;20199;-61
2022/11/22 01:01:42;;;;;;;0.93;0.47;;;;;;;5.64;82.16;93596.84;4361907;32;20205;-60
2022/11/22 01:04:08;;;;;;;1.27;0.70;;;;;;;5.63;81.76;93600.53;4371001;32;20323;-60
2022/11/22 01:06:36;;;;;;;0.73;0.73;;;;;;;5.49;82.59;93603.28;4346303;32;20339;-60
2022/11/22 01:09:03;;;;;;;0.43;0.43;;;;;;;5.16;83.80;93604.69;4345245;32;20285;-60
2022/11/22 01:11:31;;;;;;;0.20;0.20;;;;;;;5.17;84.79;93614.13;4375233;32;20299;-60
2022/11/22 01:13:56;;;;;;;0.40;0.40;;;;;;;5.27;84.31;93611.22;4370721;32;20284;-60
2022/11/22 01:16:22;;;;;;;0.87;0.87;;;;;;;5.36;84.20;93604.16;4367951;32;20336;-60
2022/11/22 01:18:47;;;;;;;0.20;0.20;;;;;;;5.38;84.11;93599.37;4359146;32;20251;-60
2022/11/22 01:21:14;;;;;;;0.50;0.50;;;;;;;5.44;83.77;93603.41;4375636;32;20188;-61
2022/11/22 01:23:42;;;;;;;1.17;1.07;;;;;;;5.47;83.35;93589.66;4377573;32;20235;-61
2022/11/22 01:26:08;;;;;;;0.70;0.70;;;;;;;5.73;83.32;93581.88;4364034;32;20335;-60
2022/11/22 01:28:35;;;;;;;0.47;0.47;;;;;;;5.77;82.93;93595.19;4342258;32;20257;-61
2022/11/22 01:31:01;;;;;;;0.60;0.60;;;;;;;5.79;82.64;93598.28;4351490;32;20196;-60
2022/11/22 01:33:29;;;;;;;2.93;0.60;;;;;;;6.05;81.83;93588.59;4376382;32;20318;-60
2022/11/22 01:35:54;;;;;;;0.40;0.40;;;;;;;5.99;82.19;93568.81;4373917;32;20244;-61
2022/11/22 01:38:21;;;;;;;0.30;0.30;;;;;;;5.97;81.63;93575.47;4373665;32;20343;-60
2022/11/22 01:40:46;;;;;;;0.50;0.50;;;;;;;5.95;82.11;93575.75;4371797;32;20188;-60
2022/11/22 01:43:23;;;;;;;0.20;0.20;;;;;;;6.24;81.33;93569.91;4391626;32;20299;-60
2022/11/22 01:46:01;;;;;;;0.87;0.87;;;;;;;6.23;81.66;93570.22;4361218;32;20196;-60
2022/11/22 01:48:50;;;;;;;3.93;0.67;;;;;;;6.18;82.12;93557.97;4353793;32;20292;-60
2022/11/22 01:51:28;;;;;;;0.10;0.10;;;;;;;6.23;81.92;93560.47;4355718;32;20277;-60
2022/11/22 01:54:03;;;;;;;0.40;0.40;;;;;;;6.26;82.23;93559.84;4379535;32;20291;-61
2022/11/22 01:56:29;;;;;;;0.10;0.10;;;;;;;6.28;82.00;93552.41;4342192;32;20311;-60
2022/11/22 01:59:02;;;;;;;0.30;0.30;;;;;;;6.22;82.43;93547.63;4335345;32;20288;-60
2022/11/22 02:01:28;;;;;;;0.33;0.33;;;;;;;6.16;82.98;93549.62;4364537;32;20288;-60
2022/11/22 02:03:57;;;;;;;0.00;0.00;;;;;;;6.32;82.76;93547.28;4373236;32;20379;-60
2022/11/22 02:06:34;;;;;;;0.17;0.17;;;;;;;6.46;83.07;93548.69;4330383;32;20285;-61
2022/11/22 02:09:12;;;;;;;0.30;0.30;;;;;;;6.30;83.61;93552.09;4330879;32;20289;-62
2022/11/22 02:11:44;;;;;;;0.33;0.33;;;;;;;6.46;83.47;93561.06;4353437;32;20340;-61
2022/11/22 02:14:12;;;;;;;0.57;0.57;;;;;;;6.54;83.42;93563.72;4361760;32;20261;-61
2022/11/22 02:16:38;;;;;;;0.07;0.07;;;;;;;6.51;83.95;93568.81;4354893;32;20306;-61
2022/11/22 02:19:10;;;;;;;0.27;0.27;;;;;;;6.56;83.67;93563.41;4309966;32;20288;-61
2022/11/22 02:21:37;;;;;;;0.60;0.60;;;;;;;6.51;84.26;93576.72;4349339;32;20307;-61
2022/11/22 02:24:17;;;;;;;0.10;0.10;;;;;;;6.60;84.31;93569.59;4354066;32;20287;-60
2022/11/22 02:26:42;;;;;;;0.10;0.10;;;;;;;6.69;84.48;93573.00;4368565;32;20292;-60
2022/11/22 02:29:08;;;;;;;0.13;0.13;;;;;;;6.38;85.64;93575.03;4378439;32;20284;-60
2022/11/22 02:31:42;;;;;;;0.20;0.17;;;;;;;6.47;86.01;93575.78;4392266;32;20199;-60
2022/11/22 02:34:15;;;;;;;0.40;0.40;;;;;;;6.57;85.81;93572.84;4353279;32;20286;-60
2022/11/22 02:36:48;;;;;;;0.10;0.10;;;;;;;6.73;85.58;93578.41;4337299;32;20285;-62
2022/11/22 02:39:24;;;;;;;0.17;0.17;;;;;;;6.83;85.51;93578.88;4332196;32;20285;-60
2022/11/22 02:41:52;;;;;;;0.27;0.27;;;;;;;6.95;85.57;93577.47;4317480;32;20407;-60
2022/11/22 02:44:19;;;;;;;0.20;0.20;;;;;;;7.03;85.43;93571.41;4351537;32;20330;-60
2022/11/22 02:46:54;;;;;;;0.13;0.13;;;;;;;6.95;86.96;93580.09;4381761;32;20277;-60
2022/11/22 02:49:22;;;;;;;1.17;0.33;;;;;;;7.06;87.47;93576.81;4373600;32;20382;-60
2022/11/22 02:51:51;;;;;;;0.33;0.33;;;;;;;7.08;88.30;93579.12;4359290;32;20316;-60
2022/11/22 02:54:16;;;;;;;0.10;0.10;;;;;;;6.98;88.43;93585.53;4360249;32;20292;-61
2022/11/22 02:56:42;;;;;;;0.10;0.10;;;;;;;6.96;89.03;93581.63;4375254;32;20322;-61
2022/11/22 02:59:08;;;;;;;0.10;0.10;;;;;;;7.04;89.71;93575.59;4371852;32;20274;-60
2022/11/22 03:01:36;;;;;;;0.23;0.20;;;;;;;7.05;90.26;93585.81;4382118;32;20193;-61
2022/11/22 03:04:02;;;;;;;0.77;0.77;;;;;;;7.16;90.17;93587.03;4350618;32;20285;-61
2022/11/22 03:06:27;;;;;;;0.20;0.20;;;;;;;7.23;90.10;93578.63;4338034;32;20280;-61
2022/11/22 03:08:52;;;;;;;0.00;0.00;;;;;;;7.16;90.96;93586.25;4362324;32;20339;-61
2022/11/22 03:11:19;;;;;;;0.00;0.00;;;;;;;7.16;91.30;93596.78;4370519;32;20300;-61
2022/11/22 03:13:46;;;;;;;0.20;0.20;;;;;;;7.05;91.53;93590.31;4348479;32;20184;-61
2022/11/22 03:16:11;;;;;;;0.10;0.10;;;;;;;7.11;91.23;93594.31;4360459;32;20316;-61
2022/11/22 03:18:39;;;;;;;0.10;0.10;;;;;;;7.14;91.29;93588.41;4351389;32;20355;-61
2022/11/22 03:21:06;;;;;;;0.13;0.13;;;;;;;7.23;91.17;93578.63;4337806;32;20299;-61
2022/11/22 03:23:32;;;;;;;0.03;0.03;;;;;;;7.16;91.85;93583.63;4350015;32;20290;-61
2022/11/22 03:25:58;;;;;;;0.13;0.13;;;;;;;7.27;91.27;93574.28;4325814;32;20317;-61
2022/11/22 03:28:27;;;;;;;0.10;0.10;;;;;;;7.25;90.91;93587.00;4368997;32;20188;-61
2022/11/22 03:30:57;;;;;;;0.10;0.10;;;;;;;7.35;90.74;93589.28;4345503;32;20275;-61
2022/11/22 03:33:23;;;;;;;0.00;0.00;;;;;;;7.37;90.59;93595.03;4370360;32;20277;-61
2022/11/22 03:35:49;;;;;;;0.00;0.00;;;;;;;7.37;90.63;93596.91;4367643;32;20358;-60
2022/11/22 03:38:16;;;;;;;0.00;0.00;;;;;;;7.40;90.65;93598.91;4372374;32;20188;-61
2022/11/22 03:40:46;;;;;;;0.30;0.17;;;;;;;7.30;91.17;93599.22;4351282;32;20370;-61
2022/11/22 03:43:12;;;;;;;0.10;0.10;;;;;;;7.19;91.11;93609.34;4360343;32;20293;-61
2022/11/22 03:45:46;;;;;;;0.10;0.10;;;;;;;7.24;91.29;93603.91;4361804;32;20303;-61
2022/11/22 03:48:13;;;;;;;0.17;0.17;;;;;;;7.33;91.71;93617.84;4359277;32;20212;-61
2022/11/22 03:50:39;;;;;;;0.00;0.00;;;;;;;7.25;91.78;93616.03;4360391;32;20316;-61
2022/11/22 03:53:05;;;;;;;0.10;0.10;;;;;;;7.26;92.06;93617.56;4369710;32;20295;-61
2022/11/22 03:55:34;;;;;;;0.30;0.30;;;;;;;7.15;92.91;93622.37;4359132;32;20351;-61
2022/11/22 03:58:00;;;;;;;1.03;0.30;;;;;;;7.13;93.62;93623.78;4338081;32;20190;-61
2022/11/22 04:00:28;;;;;;;9.13;0.20;;;;;;;7.26;93.55;93622.06;4364730;32;20322;-61
2022/11/22 04:02:54;;;;;;;0.17;0.17;;;;;;;7.13;94.23;93613.25;4353084;32;20209;-61
2022/11/22 04:05:20;;;;;;;0.07;0.07;;;;;;;7.14;94.24;93620.06;4359252;32;20433;-61
2022/11/22 04:07:48;;;;;;;0.20;0.20;;;;;;;7.17;94.92;93620.22;4356892;32;20284;-61
2022/11/22 04:10:13;;;;;;;0.27;0.27;;;;;;;6.97;95.59;93623.50;4370562;32;20196;-60
2022/11/22 04:12:39;;;;;;;0.00;0.00;;;;;;;6.95;96.11;93632.81;4347599;32;20394;-61
2022/11/22 04:15:05;;;;;;;0.20;0.20;;;;;;;7.00;96.56;93630.03;4387220;32;20226;-61
2022/11/22 04:17:43;;;;;;;0.00;0.00;;;;;;;7.00;96.70;93632.66;4376027;32;20188;-62
2022/11/22 04:23:08;;;;;;;0.10;0.10;;;;;;;7.08;97.38;93637.91;4328572;32;20269;-61
2022/11/22 04:25:38;;;;;;;0.10;0.10;;;;;;;7.08;97.24;93619.44;4358537;32;20284;-61
2022/11/22 04:28:08;;;;;;;0.10;0.10;;;;;;;6.94;97.83;93631.25;4340039;32;20277;-60
2022/11/22 04:33:24;;;;;;;0.20;0.20;;;;;;;7.03;98.64;93634.66;4365809;32;20443;-61
2022/11/22 04:35:50;;;;;;;0.47;0.20;;;;;;;6.94;98.79;93633.88;4372287;32;20374;-61
2022/11/22 04:38:18;;;;;;;0.10;0.10;;;;;;;7.04;98.84;93628.31;4368149;32;20276;-61
2022/11/22 04:40:44;;;;;;;0.30;0.30;;;;;;;7.07;99.17;93625.03;4335737;32;20194;-61
2022/11/22 04:46:13;;;;;;;1.00;0.40;;;;;;;7.03;98.71;93635.44;4380210;32;20290;-61
2022/11/22 04:48:42;;;;;;;0.10;0.10;;;;;;;6.92;98.72;93625.53;4373455;32;20390;-60
2022/11/22 04:53:57;;;;;;;0.00;0.00;;;;;;;7.10;98.76;93630.47;4362415;32;20295;-60
2022/11/22 04:56:22;;;;;;;0.40;0.20;;;;;;;7.03;98.89;93629.41;4352870;32;20273;-61
2022/11/22 04:58:50;;;;;;;0.20;0.20;;;;;;;7.04;98.65;93626.44;4368568;32;20251;-60
2022/11/22 05:01:17;;;;;;;0.10;0.10;;;;;;;7.04;98.82;93625.69;4348983;32;20226;-61
2022/11/22 05:03:45;;;;;;;0.00;0.00;;;;;;;7.01;99.42;93627.06;4331485;32;20289;-61
2022/11/22 05:06:12;;;;;;;0.30;0.10;;;;;;;7.09;98.81;93628.91;4372808;32;20276;-61
2022/11/22 05:08:38;;;;;;;0.17;0.17;;;;;;;7.05;98.99;93628.00;4384345;32;20273;-60
2022/11/22 05:11:05;;;;;;;0.00;0.00;;;;;;;7.14;98.71;93630.59;4381194;32;20363;-61
2022/11/22 05:13:38;;;;;;;0.10;0.10;;;;;;;7.16;98.18;93626.56;4367761;32;20281;-62
2022/11/22 05:16:07;;;;;;;0.20;0.10;;;;;;;7.16;98.51;93636.34;4366495;32;20280;-61
2022/11/22 05:18:34;;;;;;;0.00;0.00;;;;;;;7.06;98.73;93639.31;4370449;32;20288;-61
2022/11/22 05:21:08;;;;;;;0.10;0.10;;;;;;;7.02;98.99;93631.25;4384343;32;20290;-61
2022/11/22 05:23:53;;;;;;;0.00;0.00;;;;;;;7.10;98.98;93629.69;4390194;32;20305;-61
2022/11/22 05:26:24;;;;;;;0.37;0.37;;;;;;;7.19;98.92;93638.38;4367836;32;20327;-61
2022/11/22 05:28:49;;;;;;;0.30;0.20;;;;;;;7.15;99.26;93642.72;4383854;32;20297;-61
2022/11/22 05:31:21;;;;;;;0.20;0.20;;;;;;;7.08;99.38;93645.03;4358829;32;20297;-60
2022/11/22 05:33:48;;;;;;;0.13;0.13;;;;;;;7.05;99.70;93649.09;4366963;32;20203;-62
2022/11/22 05:36:13;;;;;;;0.00;0.00;;;;;;;7.07;99.80;93649.53;4355228;32;20289;-60
2022/11/22 05:38:40;;;;;;;0.10;0.10;;;;;;;7.12;99.42;93656.50;4373146;32;20361;-61
2022/11/22 05:41:07;;;;;;;0.10;0.10;;;;;;;7.08;99.54;93659.00;4337789;32;20193;-61
2022/11/22 05:43:34;;;;;;;0.10;0.10;;;;;;;7.03;99.84;93650.50;4344345;32;20292;-61
2022/11/22 05:46:23;;;;;;;0.03;0.03;;;;;;;7.12;100.00;93656.50;4388776;32;20325;-61
2022/11/22 05:48:50;;;;;;;0.13;0.13;;;;;;;7.06;100.00;93663.81;4380053;32;20308;-61
2022/11/22 05:51:19;;;;;;;0.00;0.00;;;;;;;7.07;100.00;93652.16;4363289;32;20371;-61
2022/11/22 05:53:47;;;;;;;0.00;0.00;;;;;;;7.19;100.00;93648.91;4332737;32;20281;-62
2022/11/22 05:56:16;;;;;;;0.10;0.10;;;;;;;7.03;100.00;93646.00;4360793;32;20288;-61
2022/11/22 05:58:42;;;;;;;0.20;0.20;;;;;;;7.08;100.00;93650.31;4357832;32;20283;-61
2022/11/22 06:01:14;;;;;;;1.93;0.43;;;;;;;7.20;100.00;93651.25;4372632;32;20312;-61
2022/11/22 06:03:41;;;;;;;0.20;0.20;;;;;;;7.09;100.00;93655.28;4358143;32;20297;-61
2022/11/22 06:06:07;;;;;;;0.87;0.57;;;;;;;6.96;100.00;93653.59;4364409;32;20288;-61
2022/11/22 06:08:43;;;;;;;0.20;0.20;;;;;;;7.08;100.00;93659.00;4343701;32;20288;-61
2022/11/22 06:11:22;;;;;;;0.10;0.10;;;;;;;7.12;100.00;93659.16;4371219;32;20402;-62
2022/11/22 06:13:52;;;;;;;0.30;0.30;;;;;;;7.11;100.00;93657.59;4371219;32;20306;-61
2022/11/22 06:16:18;;;;;;;0.10;0.10;;;;;;;7.16;100.00;93652.94;4362306;32;20287;-61
2022/11/22 06:18:45;;;;;;;0.40;0.40;;;;;;;7.21;100.00;93659.94;4340579;32;20290;-61
2022/11/22 06:21:16;;;;;;;6.70;0.30;;;;;;;7.12;100.00;93659.91;4381034;32;20288;-61
2022/11/22 06:23:41;;;;;;;0.20;0.20;;;;;;;7.21;100.00;93657.28;4378688;32;20268;-61
2022/11/22 06:26:11;;;;;;;0.10;0.10;;;;;;;7.22;100.00;93650.94;4348743;32;20351;-61
2022/11/22 06:28:38;;;;;;;0.00;0.00;;;;;;;7.11;100.00;93658.38;4378759;32;20207;-61
2022/11/22 06:31:37;;;;;;;0.10;0.10;;;;;;;7.17;100.00;93657.13;4377637;32;20299;-61
2022/11/22 06:34:02;;;;;;;0.10;0.10;;;;;;;7.22;100.00;93661.47;4349102;32;20292;-61
2022/11/22 06:36:32;;;;;;;0.10;0.10;;;;;;;7.10;100.00;93664.72;4387798;32;20296;-62
2022/11/22 06:38:59;;;;;;;0.10;0.10;;;;;;;7.07;100.00;93673.25;4355419;32;20242;-62
2022/11/22 06:41:27;;;;;;;0.10;0.10;;;;;;;7.29;100.00;93672.31;4372725;32;20281;-61
2022/11/22 06:43:57;;;;;;;0.10;0.10;;;;;;;7.27;100.00;93676.38;4350510;32;20281;-61
2022/11/22 06:46:24;;;;;;;0.00;0.00;;;;;;;7.33;100.00;93685.66;4351649;32;20319;-61
2022/11/22 06:48:49;;;;;;;0.00;0.00;;;;;;;7.22;100.00;93691.25;4371762;32;20321;-61
2022/11/22 06:51:23;;;;;;;0.60;0.60;;;;;;;7.19;100.00;93696.38;4338101;32;20285;-61
2022/11/22 06:53:51;;;;;;;0.13;0.13;;;;;;;7.20;100.00;93697.94;4347632;32;20235;-61
2022/11/22 06:56:19;;;;;;;0.30;0.30;;;;;;;7.29;100.00;93700.53;4352029;32;20272;-60
2022/11/22 06:58:48;;;;;;;0.10;0.10;;;;;;;7.40;100.00;93701.78;4361234;32;20295;-60
2022/11/22 07:01:21;;;;;;;0.30;0.30;;;;;;;7.29;100.00;93701.31;4352851;32;20276;-61
2022/11/22 07:03:47;;;;;;;0.00;0.00;;;;;;;7.26;100.00;93715.16;4353320;32;20270;-61
2022/11/22 07:06:16;;;;;;;0.50;0.50;;;;;;;7.36;100.00;93719.31;4338791;32;20293;-61
2022/11/22 07:08:44;;;;;;;0.93;0.60;;;;;;;7.23;100.00;93721.03;4365542;32;20292;-61
2022/11/22 07:11:13;;;;;;;0.30;0.30;;;;;;;7.27;100.00;93721.97;4385547;32;20331;-61
2022/11/22 07:13:39;;;;;;;0.20;0.20;;;;;;;7.24;100.00;93719.97;4352347;32;20350;-60
2022/11/22 07:16:07;;;;;;;0.23;0.23;;;;;;;7.34;100.00;93730.19;4346493;32;20288;-61
2022/11/22 07:18:37;;;;;;;0.27;0.27;;;;;;;7.32;99.86;93729.72;4331998;32;20279;-61
2022/11/22 07:21:23;;;;;;;0.40;0.40;;;;;;;7.14;100.00;93736.06;4332630;32;20298;-61
2022/11/22 07:23:51;;;;;;;0.20;0.20;;;;;;;7.15;100.00;93732.34;4359083;32;20277;-61
2022/11/22 07:26:19;;;;;;;0.33;0.33;;;;;;;7.18;100.00;93744.94;4306790;32;20366;-61
2022/11/22 07:28:45;;;;;;;0.40;0.40;;;;;;;7.10;100.00;93743.06;4362146;32;20285;-61
2022/11/22 07:31:15;;;;;;;0.47;0.47;;;;;;;7.05;100.00;93749.28;4369789;32;20307;-61
2022/11/22 07:33:42;;;;;;;1.53;0.80;;;;;;;7.06;100.00;93745.56;4372764;32;20200;-61
2022/11/22 07:36:09;;;;;;;0.27;0.23;;;;;;;7.21;100.00;93755.62;4368943;32;20323;-53
2022/11/22 07:38:36;;;;;;;0.23;0.23;;;;;;;8.98;100.00;93748.06;4371377;32;20354;-53
2022/11/22 07:41:02;;;;;;;0.70;0.70;;;;;;;10.76;100.00;93743.50;4375704;32;20289;-54
2022/11/22 07:43:29;;;;;;;0.60;0.60;;;;;;;11.13;100.00;93752.19;4344906;32;20278;-52
2022/11/22 07:46:00;;;;;;;1.17;1.07;;;;;;;11.26;99.12;93756.34;4342699;32;20204;-52
2022/11/22 07:48:26;;;;;;;0.50;0.40;;;;;;;11.83;91.14;93768.59;4314238;32;20189;-50
2022/11/22 07:50:52;;;;;;;0.70;0.70;;;;;;;12.27;89.15;93770.12;4314380;32;20265;-54
2022/11/22 07:53:18;;;;;;;0.57;0.57;;;;;;;12.34;85.49;93772.97;4309953;32;20217;-53
2022/11/22 07:55:45;;;;;;;0.77;0.77;;;;;;;12.55;82.78;93772.72;4338988;32;20242;-53
2022/11/22 07:58:10;;;;;;;0.63;0.63;;;;;;;12.71;80.13;93783.34;4341263;32;20189;-52
2022/11/22 08:00:36;;;;;;;0.10;0.10;;;;;;;12.92;78.68;93793.72;4332938;32;20220;-52
2022/11/22 08:03:02;;;;;;;1.80;0.50;;;;;;;12.88;77.53;93788.34;4327565;32;20199;-53
2022/11/22 08:05:30;;;;;;;5.80;1.17;;;;;;;12.87;77.24;93789.47;4327582;32;20251;-54
2022/11/22 08:07:56;;;;;;;0.73;0.73;;;;;;;12.94;76.75;93799.47;4324001;32;20235;-48
2022/11/22 08:10:23;;;;;;;1.53;0.80;;;;;;;12.87;75.89;93796.66;4359524;32;20280;-53
2022/11/22 08:12:48;;;;;;;0.57;0.57;;;;;;;12.94;76.42;93796.81;4345359;32;20208;-50
2022/11/22 08:15:16;;;;;;;1.70;1.17;;;;;;;13.02;75.29;93793.22;4364452;32;20185;-52
2022/11/22 08:17:41;;;;;;;0.50;0.50;;;;;;;12.87;74.57;93802.00;4352071;32;20193;-51
2022/11/22 08:20:10;;;;;;;0.37;0.37;;;;;;;12.75;74.37;93808.16;4344950;32;20201;-53
2022/11/22 08:22:39;;;;;;;4.80;0.77;;;;;;;12.86;75.05;93814.53;4360271;32;20189;-52
2022/11/22 08:25:11;;;;;;;1.27;1.17;;;;;;;12.87;74.76;93818.75;4355578;32;20204;-50
2022/11/22 08:27:37;;;;;;;1.27;1.17;;;;;;;13.29;87.45;93818.19;4354462;32;20185;-52
2022/11/22 08:30:02;;;;;;;0.77;0.77;;;;;;;13.58;86.29;93827.56;4366159;32;20235;-50
2022/11/22 08:32:28;;;;;;;2.50;2.30;;;;;;;13.06;79.22;93832.12;4343017;32;20181;-49
2022/11/22 08:34:53;;;;;;;12.57;5.97;;;;;;;13.22;81.33;93837.44;4356033;32;20181;-53
2022/11/22 08:37:18;;;;;;;1.87;1.60;;;;;;;13.65;80.19;93828.50;4373149;32;20233;-52
2022/11/22 08:39:46;;;;;;;2.67;2.20;;;;;;;13.22;74.81;93837.44;4356823;32;20208;-53
2022/11/22 08:42:11;;;;;;;2.17;2.07;;;;;;;13.74;75.71;93846.94;4372046;32;20226;-51
2022/11/22 08:44:40;;;;;;;1.73;1.63;;;;;;;13.82;76.76;93847.88;4378548;32;20205;-52
2022/11/22 08:47:05;;;;;;;2.67;0.77;;;;;;;13.99;74.77;93848.22;4383221;32;20218;-60
2022/11/22 08:49:30;;;;;;;2.07;0.87;;;;;;;13.15;69.40;93852.44;4401280;32;20188;-60
2022/11/22 08:51:56;;;;;;;0.57;0.57;;;;;;;11.59;74.04;93844.59;4369038;32;20199;-61
2022/11/22 08:54:21;;;;;;;5.20;0.90;;;;;;;10.84;78.85;93854.03;4371404;32;20269;-60
2022/11/22 08:56:46;;;;;;;1.83;1.00;;;;;;;10.14;81.51;93861.16;4389130;32;20229;-61
2022/11/22 08:59:12;;;;;;;1.20;1.10;;;;;;;9.33;85.46;93862.41;4385814;32;20196;-61
2022/11/22 09:01:37;;;;;;;0.27;0.27;;;;;;;8.88;87.52;93870.88;4386652;32;20188;-62
2022/11/22 09:04:02;;;;;;;0.20;0.20;;;;;;;8.52;89.03;93867.91;4371003;32;20263;-60
2022/11/22 09:06:29;;;;;;;1.87;1.17;;;;;;;8.66;89.14;93872.97;4371055;32;20274;-60
2022/11/22 09:08:55;;;;;;;0.60;0.60;;;;;;;8.62;89.95;93875.47;4373629;32;20189;-60
2022/11/22 09:11:20;;;;;;;2.17;0.53;;;;;;;8.57;91.09;93876.41;4369218;32;20321;-60
2022/11/22 09:13:46;;;;;;;0.70;0.70;;;;;;;8.70;90.71;93885.25;4372932;32;20192;-59
2022/11/22 09:16:14;;;;;;;0.50;0.50;;;;;;;8.50;92.04;93891.22;4389475;32;20200;-60
2022/11/22 09:18:40;;;;;;;0.93;0.63;;;;;;;8.47;92.47;93881.28;4373263;32;20249;-60
2022/11/22 09:21:08;;;;;;;0.47;0.47;;;;;;;8.48;92.88;93882.84;4386189;32;20205;-60
2022/11/22 09:23:34;;;;;;;0.60;0.60;;;;;;;8.43;92.80;93888.28;4374328;32;20196;-60
2022/11/22 09:26:06;;;;;;;0.53;0.47;;;;;;;8.33;93.34;93892.00;4376541;32;20207;-59
2022/11/22 09:28:32;;;;;;;0.63;0.63;;;;;;;8.63;92.43;93895.53;4368533;32;20192;-62
2022/11/22 09:31:07;;;;;;;0.60;0.60;;;;;;;8.54;92.44;93892.91;4388276;32;20188;-59
2022/11/22 09:33:34;;;;;;;0.57;0.43;;;;;;;8.52;92.75;93891.69;4378983;32;20195;-59
2022/11/22 09:36:02;;;;;;;0.63;0.63;;;;;;;8.44;92.99;93898.53;4375399;32;20192;-60
2022/11/22 09:38:29;;;;;;;0.63;0.63;;;;;;;8.39;93.34;93903.19;4386532;32;20180;-59
2022/11/22 09:40:54;;;;;;;0.53;0.47;;;;;;;8.41;93.09;93901.03;4371397;32;20248;-60
2022/11/22 09:43:31;;;;;;;0.37;0.37;;;;;;;8.52;93.20;93904.91;4358287;32;20246;-59
2022/11/22 09:46:13;;;;;;;0.23;0.23;;;;;;;8.29;93.76;93906.94;4376706;32;20183;-62
2022/11/22 09:48:54;;;;;;;0.40;0.40;;;;;;;8.42;93.54;93911.28;4374597;32;20218;-62
2022/11/22 09:51:36;;;;;;;0.33;0.33;;;;;;;8.54;94.83;93903.47;4371183;32;20307;-61
2022/11/22 09:54:09;;;;;;;0.70;0.70;;;;;;;8.41;93.04;93914.25;4365016;32;20252;-64
2022/11/22 09:56:36;;;;;;;0.60;0.60;;;;;;;8.36;93.33;93909.13;4376376;32;20188;-60
2022/11/22 09:59:12;;;;;;;0.77;0.77;;;;;;;8.48;92.53;93906.62;4376494;32;20230;-61
2022/11/22 10:01:47;;;;;;;1.60;1.00;;;;;;;8.53;92.36;93911.72;4383956;32;20215;-61
2022/11/22 10:04:31;;;;;;;0.23;0.23;;;;;;;8.78;91.33;93913.50;4372328;32;20184;-60
2022/11/22 10:07:00;;;;;;;0.80;0.80;;;;;;;8.34;91.38;93912.06;4370079;32;20184;-61
2022/11/22 10:09:53;;;;;;;0.33;0.33;;;;;;;8.42;91.93;93915.78;4370702;32;20214;-61
2022/11/22 10:12:45;;;;;;;0.30;0.30;;;;;;;8.34;91.99;93913.94;4371686;32;20316;-60
2022/11/22 10:15:39;;;;;;;1.13;0.57;;;;;;;8.34;91.60;93924.50;4378391;32;20180;-60
2022/11/22 10:18:36;;;;;;;2.23;0.83;;;;;;;8.51;90.83;93914.69;4379197;32;20184;-60
2022/11/22 10:21:03;;;;;;;0.30;0.30;;;;;;;8.60;90.62;93914.66;4344105;32;20233;-61
2022/11/22 10:23:31;;;;;;;0.43;0.43;;;;;;;8.45;90.93;93915.16;4382756;32;20188;-61
2022/11/22 10:26:25;;;;;;;0.33;0.33;;;;;;;8.45;90.88;93912.53;4373045;32;20214;-62
2022/11/22 10:29:12;;;;;;;0.93;0.73;;;;;;;8.48;90.55;93910.03;4370003;32;20236;-63
2022/11/22 10:31:50;;;;;;;0.40;0.40;;;;;;;8.33;89.66;93913.16;4376487;32;20172;-60
2022/11/22 10:34:44;;;;;;;0.43;0.40;;;;;;;8.25;90.08;93917.34;4373073;32;20321;-63
2022/11/22 10:37:38;;;;;;;1.60;0.73;;;;;;;8.17;90.61;93920.00;4368081;32;20272;-62
2022/11/22 10:40:26;;;;;;;0.43;0.43;;;;;;;8.20;90.56;93917.50;4361331;32;20306;-62
2022/11/22 10:43:11;;;;;;;0.53;0.53;;;;;;;7.99;91.61;93913.16;4378036;32;20394;-63
2022/11/22 10:45:46;;;;;;;0.03;0.03;;;;;;;8.05;91.87;93915.34;4388381;32;20325;-63
2022/11/22 10:48:26;;;;;;;0.30;0.30;;;;;;;7.95;93.28;93913.00;4374355;32;20288;-62
2022/11/22 10:51:01;;;;;;;0.13;0.13;;;;;;;8.05;92.38;93904.00;4375963;32;20379;-63
2022/11/22 10:53:54;;;;;;;0.30;0.30;;;;;;;8.17;91.25;93904.13;4375303;32;20279;-64
2022/11/22 10:56:27;;;;;;;0.43;0.43;;;;;;;7.97;92.34;93899.50;4361972;32;20276;-64
2022/11/22 10:59:34;;;;;;;0.40;0.30;;;;;;;8.14;91.32;93889.69;4363151;32;20352;-67
2022/11/22 11:02:34;;;;;;;0.37;0.37;;;;;;;8.28;90.65;93900.88;4352968;32;20315;-60
2022/11/22 11:05:04;;;;;;;0.30;0.30;;;;;;;8.02;91.64;93897.47;4379874;32;20279;-62
2022/11/22 11:07:30;;;;;;;0.80;0.80;;;;;;;8.27;90.80;93898.53;4380233;32;20383;-63
2022/11/22 11:10:01;;;;;;;0.50;0.50;;;;;;;8.20;92.34;93904.28;4387795;32;20307;-61
2022/11/22 11:12:48;;;;;;;0.60;0.50;;;;;;;8.38;90.65;93904.28;4373451;32;20185;-61
2022/11/22 11:15:37;;;;;;;0.10;0.10;;;;;;;8.13;91.42;93903.97;4373342;32;20284;-63
2022/11/22 11:18:09;;;;;;;2.80;0.45;;;;;;;8.17;91.17;93909.41;4378504;32;20138;-61
2022/11/22 11:20:39;;;;;;;0.30;0.30;;;;;;;8.17;90.30;93906.78;4372415;32;20226;-60
2022/11/22 11:23:05;;;;;;;0.37;0.37;;;;;;;8.28;89.94;93911.44;4388014;32;20315;-61
2022/11/22 11:25:39;;;;;;;0.33;0.27;;;;;;;8.23;90.06;93903.69;4365912;32;20296;-61
2022/11/22 11:28:15;;;;;;;1.13;0.83;;;;;;;8.35;88.85;93903.06;4360142;32;20172;-62
2022/11/22 11:30:54;;;;;;;0.20;0.20;;;;;;;8.50;88.68;93905.22;4360088;32;20296;-62
2022/11/22 11:33:30;;;;;;;4.53;0.73;;;;;;;7.89;90.77;93909.78;4367007;32;20335;-62
2022/11/22 11:36:17;;;;;;;0.30;0.30;;;;;;;7.95;91.21;93910.37;4372377;32;20283;-62
2022/11/22 11:38:43;;;;;;;0.67;0.43;;;;;;;8.20;91.77;93904.28;4374159;32;20333;-62
2022/11/22 11:41:20;;;;;;;0.13;0.13;;;;;;;8.22;92.08;93898.69;4385792;32;20281;-61
2022/11/22 11:43:46;;;;;;;0.30;0.20;;;;;;;8.06;92.41;93903.69;4362690;32;20203;-61
2022/11/22 11:46:22;;;;;;;1.10;0.50;;;;;;;8.37;92.21;93900.09;4386877;32;20188;-61
2022/11/22 11:48:52;;;;;;;0.60;0.40;;;;;;;8.17;92.42;93899.62;4368759;32;20284;-61
2022/11/22 11:51:28;;;;;;;0.43;0.43;;;;;;;8.12;91.70;93899.78;4376296;32;20314;-61
2022/11/22 11:53:58;;;;;;;0.77;0.47;;;;;;;7.96;92.39;93900.59;4379560;32;20280;-62
2022/11/22 11:56:39;;;;;;;0.30;0.30;;;;;;;7.89;91.78;93903.72;4387203;32;20276;-62
2022/11/22 11:59:13;;;;;;;0.07;0.07;;;;;;;7.81;91.72;93901.84;4364289;32;20288;-61
2022/11/22 12:02:04;;;;;;;0.57;0.57;;;;;;;7.89;92.87;93893.94;4389108;32;20331;-61
2022/11/22 12:04:36;;;;;;;0.20;0.20;;;;;;;7.79;91.30;93904.00;4349912;32;20276;-61